YQS weather

St Thomas Municipal Airport
St Thomas, Ontario, Canada

Public forecast

Using degrees Celsius for public forecast. Weather courtesy of forecast.io.

Closest aviation weather report (METAR) to St Thomas Municipal Airport

Closest report is London Airport, 16.1 nm (29.7 km) N. Retrieved 2019/10/21 03:00 UTC (33 minutes ago):

CYXU 210300Z 36003KT 15SM FEW050 09/08 A3000 RMK SC2 SLP162

Closest aviation forecast (TAF) to St Thomas Municipal Airport

Closest forecast is London Airport, 16.1 nm (29.7 km) N. Retrieved 2019-10-21 00:42 UTC (3 hours ago):

TAF CYXU 202340Z 2100/2124 VRB03KT P6SM FEW040 FEW090 TEMPO 2103/2114 2SM BR PROB30 2107/2114 1/4SM FG FM211500 11012G22KT P6SM BKN240 BECMG 2115/2117 13015G25KT BECMG 2119/2121 12018G28KT RMK NXT FCST BY 210600Z